sensor_id;sensor_type;location;lat;lon;timestamp;P1;durP1;ratioP1;P2;durP2;ratioP2
16977;SDS011;8605;52.548;4.918;2022-11-20T00:01:49;9.17;;;5.00;;
16977;SDS011;8605;52.548;4.918;2022-11-20T00:07:12;12.13;;;5.13;;
16977;SDS011;8605;52.548;4.918;2022-11-20T00:12:36;11.10;;;6.30;;
16977;SDS011;8605;52.548;4.918;2022-11-20T00:18:00;8.93;;;4.40;;
16977;SDS011;8605;52.548;4.918;2022-11-20T00:23:23;8.87;;;4.60;;
16977;SDS011;8605;52.548;4.918;2022-11-20T00:28:50;7.77;;;4.30;;
16977;SDS011;8605;52.548;4.918;2022-11-20T00:34:14;7.50;;;4.40;;
16977;SDS011;8605;52.548;4.918;2022-11-20T00:39:38;8.53;;;4.23;;
16977;SDS011;8605;52.548;4.918;2022-11-20T00:45:02;12.30;;;4.37;;
16977;SDS011;8605;52.548;4.918;2022-11-20T00:50:26;10.13;;;5.03;;
16977;SDS011;8605;52.548;4.918;2022-11-20T00:55:53;9.27;;;5.23;;
16977;SDS011;8605;52.548;4.918;2022-11-20T01:01:19;11.97;;;5.27;;
16977;SDS011;8605;52.548;4.918;2022-11-20T01:06:45;12.03;;;5.63;;
16977;SDS011;8605;52.548;4.918;2022-11-20T01:12:09;12.00;;;5.77;;
16977;SDS011;8605;52.548;4.918;2022-11-20T01:17:33;9.03;;;4.67;;
16977;SDS011;8605;52.548;4.918;2022-11-20T01:22:56;11.20;;;6.73;;
16977;SDS011;8605;52.548;4.918;2022-11-20T01:28:20;16.63;;;6.40;;
16977;SDS011;8605;52.548;4.918;2022-11-20T01:33:44;10.37;;;5.37;;
16977;SDS011;8605;52.548;4.918;2022-11-20T01:39:10;12.40;;;5.77;;
16977;SDS011;8605;52.548;4.918;2022-11-20T01:44:51;11.80;;;6.13;;
16977;SDS011;8605;52.548;4.918;2022-11-20T01:50:18;6.97;;;3.87;;
16977;SDS011;8605;52.548;4.918;2022-11-20T01:55:46;16.40;;;6.17;;
16977;SDS011;8605;52.548;4.918;2022-11-20T02:01:11;8.20;;;4.70;;
16977;SDS011;8605;52.548;4.918;2022-11-20T02:06:38;8.07;;;3.93;;
16977;SDS011;8605;52.548;4.918;2022-11-20T02:12:05;10.87;;;4.83;;
16977;SDS011;8605;52.548;4.918;2022-11-20T02:17:48;6.53;;;3.57;;
16977;SDS011;8605;52.548;4.918;2022-11-20T02:23:15;12.63;;;6.47;;
16977;SDS011;8605;52.548;4.918;2022-11-20T02:28:42;11.37;;;5.17;;
16977;SDS011;8605;52.548;4.918;2022-11-20T02:34:05;7.97;;;4.23;;
16977;SDS011;8605;52.548;4.918;2022-11-20T02:39:29;9.33;;;4.37;;
16977;SDS011;8605;52.548;4.918;2022-11-20T02:44:53;15.20;;;5.57;;
16977;SDS011;8605;52.548;4.918;2022-11-20T02:50:17;5.50;;;3.90;;
16977;SDS011;8605;52.548;4.918;2022-11-20T02:55:40;6.17;;;3.87;;
16977;SDS011;8605;52.548;4.918;2022-11-20T03:01:05;9.10;;;4.10;;
16977;SDS011;8605;52.548;4.918;2022-11-20T03:06:28;11.57;;;5.27;;
16977;SDS011;8605;52.548;4.918;2022-11-20T03:11:52;12.67;;;4.93;;
16977;SDS011;8605;52.548;4.918;2022-11-20T03:17:17;8.70;;;3.93;;
16977;SDS011;8605;52.548;4.918;2022-11-20T03:22:40;6.60;;;4.47;;
16977;SDS011;8605;52.548;4.918;2022-11-20T03:28:03;12.97;;;5.33;;
16977;SDS011;8605;52.548;4.918;2022-11-20T03:33:29;8.27;;;5.40;;
16977;SDS011;8605;52.548;4.918;2022-11-20T03:38:52;7.60;;;4.03;;
16977;SDS011;8605;52.548;4.918;2022-11-20T03:44:16;8.77;;;4.43;;
16977;SDS011;8605;52.548;4.918;2022-11-20T03:49:40;13.77;;;4.23;;
16977;SDS011;8605;52.548;4.918;2022-11-20T03:55:04;9.57;;;5.00;;
16977;SDS011;8605;52.548;4.918;2022-11-20T04:00:27;10.30;;;4.93;;
16977;SDS011;8605;52.548;4.918;2022-11-20T04:05:52;9.33;;;5.00;;
16977;SDS011;8605;52.548;4.918;2022-11-20T04:11:15;13.10;;;5.20;;
16977;SDS011;8605;52.548;4.918;2022-11-20T04:16:39;9.07;;;4.80;;
16977;SDS011;8605;52.548;4.918;2022-11-20T04:22:04;11.20;;;4.60;;
16977;SDS011;8605;52.548;4.918;2022-11-20T04:27:27;13.17;;;6.60;;
16977;SDS011;8605;52.548;4.918;2022-11-20T04:32:51;10.70;;;5.70;;
16977;SDS011;8605;52.548;4.918;2022-11-20T04:38:16;14.13;;;4.90;;
16977;SDS011;8605;52.548;4.918;2022-11-20T04:43:39;15.83;;;5.50;;
16977;SDS011;8605;52.548;4.918;2022-11-20T04:49:02;11.63;;;5.27;;
16977;SDS011;8605;52.548;4.918;2022-11-20T04:54:27;9.93;;;4.37;;
16977;SDS011;8605;52.548;4.918;2022-11-20T04:59:50;11.17;;;6.17;;
16977;SDS011;8605;52.548;4.918;2022-11-20T05:05:14;10.90;;;5.50;;
16977;SDS011;8605;52.548;4.918;2022-11-20T05:10:38;8.83;;;5.07;;
16977;SDS011;8605;52.548;4.918;2022-11-20T05:16:02;10.63;;;4.87;;
16977;SDS011;8605;52.548;4.918;2022-11-20T05:21:25;9.60;;;5.47;;
16977;SDS011;8605;52.548;4.918;2022-11-20T05:26:50;11.40;;;5.67;;
16977;SDS011;8605;52.548;4.918;2022-11-20T05:32:13;8.30;;;4.40;;
16977;SDS011;8605;52.548;4.918;2022-11-20T05:37:37;14.93;;;5.60;;
16977;SDS011;8605;52.548;4.918;2022-11-20T05:43:01;9.23;;;5.93;;
16977;SDS011;8605;52.548;4.918;2022-11-20T05:48:24;16.80;;;6.57;;
16977;SDS011;8605;52.548;4.918;2022-11-20T05:53:48;16.97;;;6.40;;
16977;SDS011;8605;52.548;4.918;2022-11-20T05:59:12;11.00;;;5.83;;
16977;SDS011;8605;52.548;4.918;2022-11-20T06:04:35;9.00;;;4.60;;
16977;SDS011;8605;52.548;4.918;2022-11-20T06:09:59;10.60;;;5.70;;
16977;SDS011;8605;52.548;4.918;2022-11-20T06:15:23;12.17;;;6.10;;
16977;SDS011;8605;52.548;4.918;2022-11-20T06:20:46;14.17;;;5.87;;
16977;SDS011;8605;52.548;4.918;2022-11-20T06:26:11;8.33;;;5.27;;
16977;SDS011;8605;52.548;4.918;2022-11-20T06:31:36;5.97;;;4.20;;
16977;SDS011;8605;52.548;4.918;2022-11-20T06:37:00;11.97;;;5.00;;
16977;SDS011;8605;52.548;4.918;2022-11-20T06:42:23;11.73;;;5.40;;
16977;SDS011;8605;52.548;4.918;2022-11-20T06:47:48;12.30;;;6.17;;
16977;SDS011;8605;52.548;4.918;2022-11-20T06:53:11;9.50;;;5.30;;
16977;SDS011;8605;52.548;4.918;2022-11-20T06:58:34;13.27;;;6.07;;
16977;SDS011;8605;52.548;4.918;2022-11-20T07:03:59;8.53;;;4.90;;
16977;SDS011;8605;52.548;4.918;2022-11-20T07:09:22;15.60;;;5.73;;
16977;SDS011;8605;52.548;4.918;2022-11-20T07:14:46;10.20;;;5.53;;
16977;SDS011;8605;52.548;4.918;2022-11-20T07:20:11;13.63;;;6.43;;
16977;SDS011;8605;52.548;4.918;2022-11-20T07:25:36;11.50;;;6.23;;
16977;SDS011;8605;52.548;4.918;2022-11-20T07:30:59;25.07;;;8.10;;
16977;SDS011;8605;52.548;4.918;2022-11-20T07:36:25;17.20;;;7.07;;
16977;SDS011;8605;52.548;4.918;2022-11-20T07:41:49;11.60;;;6.33;;
16977;SDS011;8605;52.548;4.918;2022-11-20T07:47:12;14.83;;;7.70;;
16977;SDS011;8605;52.548;4.918;2022-11-20T07:52:37;16.13;;;7.23;;
16977;SDS011;8605;52.548;4.918;2022-11-20T07:58:00;20.63;;;7.57;;
16977;SDS011;8605;52.548;4.918;2022-11-20T08:03:23;24.50;;;7.87;;
16977;SDS011;8605;52.548;4.918;2022-11-20T08:08:48;23.73;;;9.30;;
16977;SDS011;8605;52.548;4.918;2022-11-20T08:14:11;16.47;;;8.27;;
16977;SDS011;8605;52.548;4.918;2022-11-20T08:19:34;17.57;;;7.87;;
16977;SDS011;8605;52.548;4.918;2022-11-20T08:24:59;18.73;;;9.30;;
16977;SDS011;8605;52.548;4.918;2022-11-20T08:30:22;17.60;;;8.57;;
16977;SDS011;8605;52.548;4.918;2022-11-20T08:35:45;17.07;;;8.93;;
16977;SDS011;8605;52.548;4.918;2022-11-20T08:41:10;16.37;;;9.17;;
16977;SDS011;8605;52.548;4.918;2022-11-20T08:46:48;16.47;;;8.43;;
16977;SDS011;8605;52.548;4.918;2022-11-20T08:52:11;23.43;;;9.73;;
16977;SDS011;8605;52.548;4.918;2022-11-20T08:57:36;22.47;;;10.77;;
16977;SDS011;8605;52.548;4.918;2022-11-20T09:03:00;14.83;;;9.40;;
16977;SDS011;8605;52.548;4.918;2022-11-20T09:08:23;20.40;;;9.80;;
16977;SDS011;8605;52.548;4.918;2022-11-20T09:13:48;20.37;;;9.40;;
16977;SDS011;8605;52.548;4.918;2022-11-20T09:19:11;20.90;;;9.87;;
16977;SDS011;8605;52.548;4.918;2022-11-20T09:24:55;19.83;;;8.37;;
16977;SDS011;8605;52.548;4.918;2022-11-20T09:30:19;18.43;;;8.63;;
16977;SDS011;8605;52.548;4.918;2022-11-20T09:35:43;17.53;;;8.27;;
16977;SDS011;8605;52.548;4.918;2022-11-20T09:41:06;15.60;;;8.10;;
16977;SDS011;8605;52.548;4.918;2022-11-20T09:46:45;13.57;;;6.73;;
16977;SDS011;8605;52.548;4.918;2022-11-20T09:52:15;14.37;;;7.90;;
16977;SDS011;8605;52.548;4.918;2022-11-20T09:57:44;21.37;;;9.60;;
16977;SDS011;8605;52.548;4.918;2022-11-20T10:03:13;17.60;;;6.70;;
16977;SDS011;8605;52.548;4.918;2022-11-20T10:08:39;17.53;;;7.70;;
16977;SDS011;8605;52.548;4.918;2022-11-20T10:14:07;18.07;;;8.00;;
16977;SDS011;8605;52.548;4.918;2022-11-20T10:19:41;15.53;;;6.87;;
16977;SDS011;8605;52.548;4.918;2022-11-20T10:25:13;20.43;;;6.70;;
16977;SDS011;8605;52.548;4.918;2022-11-20T10:30:37;15.17;;;7.40;;
16977;SDS011;8605;52.548;4.918;2022-11-20T10:36:08;12.97;;;5.77;;
16977;SDS011;8605;52.548;4.918;2022-11-20T10:41:38;13.00;;;6.77;;
16977;SDS011;8605;52.548;4.918;2022-11-20T10:47:03;10.70;;;6.40;;
16977;SDS011;8605;52.548;4.918;2022-11-20T10:52:29;12.33;;;6.73;;
16977;SDS011;8605;52.548;4.918;2022-11-20T10:58:00;11.83;;;6.20;;
16977;SDS011;8605;52.548;4.918;2022-11-20T11:03:29;15.23;;;7.33;;
16977;SDS011;8605;52.548;4.918;2022-11-20T11:08:55;12.47;;;6.83;;
16977;SDS011;8605;52.548;4.918;2022-11-20T11:14:20;12.13;;;7.07;;
16977;SDS011;8605;52.548;4.918;2022-11-20T11:19:56;12.73;;;8.07;;
16977;SDS011;8605;52.548;4.918;2022-11-20T11:25:23;14.67;;;7.20;;
16977;SDS011;8605;52.548;4.918;2022-11-20T11:30:48;13.43;;;6.83;;
16977;SDS011;8605;52.548;4.918;2022-11-20T11:36:16;17.07;;;8.93;;
16977;SDS011;8605;52.548;4.918;2022-11-20T11:41:42;15.53;;;7.47;;
16977;SDS011;8605;52.548;4.918;2022-11-20T11:47:08;11.13;;;6.97;;
16977;SDS011;8605;52.548;4.918;2022-11-20T11:52:32;16.13;;;7.20;;
16977;SDS011;8605;52.548;4.918;2022-11-20T11:58:02;20.73;;;8.73;;
16977;SDS011;8605;52.548;4.918;2022-11-20T12:03:34;19.43;;;8.47;;
16977;SDS011;8605;52.548;4.918;2022-11-20T12:08:59;15.20;;;7.97;;
16977;SDS011;8605;52.548;4.918;2022-11-20T12:14:28;17.93;;;8.77;;
16977;SDS011;8605;52.548;4.918;2022-11-20T12:19:53;14.27;;;8.53;;
16977;SDS011;8605;52.548;4.918;2022-11-20T12:25:17;19.17;;;9.70;;
16977;SDS011;8605;52.548;4.918;2022-11-20T12:30:48;15.13;;;8.43;;
16977;SDS011;8605;52.548;4.918;2022-11-20T12:36:19;18.17;;;9.87;;
16977;SDS011;8605;52.548;4.918;2022-11-20T12:41:55;19.00;;;9.23;;
16977;SDS011;8605;52.548;4.918;2022-11-20T12:48:16;20.00;;;9.50;;
16977;SDS011;8605;52.548;4.918;2022-11-20T12:53:49;27.60;;;12.00;;
16977;SDS011;8605;52.548;4.918;2022-11-20T12:59:23;21.63;;;10.73;;
16977;SDS011;8605;52.548;4.918;2022-11-20T13:05:04;28.13;;;12.07;;
16977;SDS011;8605;52.548;4.918;2022-11-20T13:10:35;23.13;;;10.23;;
16977;SDS011;8605;52.548;4.918;2022-11-20T13:16:03;22.17;;;11.00;;
16977;SDS011;8605;52.548;4.918;2022-11-20T13:21:36;25.37;;;10.97;;
16977;SDS011;8605;52.548;4.918;2022-11-20T13:27:05;25.53;;;12.40;;
16977;SDS011;8605;52.548;4.918;2022-11-20T13:32:53;24.97;;;11.43;;
16977;SDS011;8605;52.548;4.918;2022-11-20T13:38:18;23.00;;;11.03;;
16977;SDS011;8605;52.548;4.918;2022-11-20T13:43:41;26.87;;;11.03;;
16977;SDS011;8605;52.548;4.918;2022-11-20T13:49:08;26.00;;;11.07;;
16977;SDS011;8605;52.548;4.918;2022-11-20T13:54:46;24.57;;;11.57;;
16977;SDS011;8605;52.548;4.918;2022-11-20T14:00:23;20.23;;;10.90;;
16977;SDS011;8605;52.548;4.918;2022-11-20T14:05:49;19.97;;;11.73;;
16977;SDS011;8605;52.548;4.918;2022-11-20T14:11:16;24.63;;;11.47;;
16977;SDS011;8605;52.548;4.918;2022-11-20T14:16:40;24.27;;;11.50;;
16977;SDS011;8605;52.548;4.918;2022-11-20T14:22:08;22.33;;;11.93;;
16977;SDS011;8605;52.548;4.918;2022-11-20T14:27:39;23.47;;;12.27;;
16977;SDS011;8605;52.548;4.918;2022-11-20T14:33:03;27.83;;;12.47;;
16977;SDS011;8605;52.548;4.918;2022-11-20T14:38:28;21.63;;;11.23;;
16977;SDS011;8605;52.548;4.918;2022-11-20T14:43:54;24.00;;;11.73;;
16977;SDS011;8605;52.548;4.918;2022-11-20T14:49:19;26.07;;;11.47;;
16977;SDS011;8605;52.548;4.918;2022-11-20T14:54:43;30.13;;;13.27;;
16977;SDS011;8605;52.548;4.918;2022-11-20T15:00:18;29.60;;;13.93;;
16977;SDS011;8605;52.548;4.918;2022-11-20T15:05:46;20.87;;;11.20;;
16977;SDS011;8605;52.548;4.918;2022-11-20T15:11:16;24.97;;;11.00;;
16977;SDS011;8605;52.548;4.918;2022-11-20T15:16:42;22.03;;;10.67;;
16977;SDS011;8605;52.548;4.918;2022-11-20T15:22:07;19.70;;;10.90;;
16977;SDS011;8605;52.548;4.918;2022-11-20T15:27:32;18.93;;;11.43;;
16977;SDS011;8605;52.548;4.918;2022-11-20T15:32:57;24.13;;;10.80;;
16977;SDS011;8605;52.548;4.918;2022-11-20T15:38:20;21.67;;;11.93;;
16977;SDS011;8605;52.548;4.918;2022-11-20T15:43:43;21.10;;;11.30;;
16977;SDS011;8605;52.548;4.918;2022-11-20T15:49:10;30.10;;;13.93;;
16977;SDS011;8605;52.548;4.918;2022-11-20T15:54:35;25.80;;;13.83;;
16977;SDS011;8605;52.548;4.918;2022-11-20T15:59:58;26.57;;;14.63;;
16977;SDS011;8605;52.548;4.918;2022-11-20T16:05:23;26.57;;;13.93;;
16977;SDS011;8605;52.548;4.918;2022-11-20T16:10:46;31.73;;;15.93;;
16977;SDS011;8605;52.548;4.918;2022-11-20T16:16:11;30.03;;;13.90;;
16977;SDS011;8605;52.548;4.918;2022-11-20T16:21:42;28.70;;;14.67;;
16977;SDS011;8605;52.548;4.918;2022-11-20T16:27:05;26.10;;;13.47;;
16977;SDS011;8605;52.548;4.918;2022-11-20T16:32:28;26.73;;;14.43;;
16977;SDS011;8605;52.548;4.918;2022-11-20T16:37:53;25.43;;;12.87;;
16977;SDS011;8605;52.548;4.918;2022-11-20T16:43:16;27.57;;;13.47;;
16977;SDS011;8605;52.548;4.918;2022-11-20T16:48:39;27.60;;;13.70;;
16977;SDS011;8605;52.548;4.918;2022-11-20T16:54:04;34.30;;;12.83;;
16977;SDS011;8605;52.548;4.918;2022-11-20T16:59:28;27.97;;;12.40;;
16977;SDS011;8605;52.548;4.918;2022-11-20T17:04:51;26.97;;;12.70;;
16977;SDS011;8605;52.548;4.918;2022-11-20T17:10:16;27.57;;;13.33;;
16977;SDS011;8605;52.548;4.918;2022-11-20T17:15:39;35.53;;;16.20;;
16977;SDS011;8605;52.548;4.918;2022-11-20T17:21:03;29.10;;;15.00;;
16977;SDS011;8605;52.548;4.918;2022-11-20T17:26:28;24.20;;;12.03;;
16977;SDS011;8605;52.548;4.918;2022-11-20T17:31:52;27.60;;;13.73;;
16977;SDS011;8605;52.548;4.918;2022-11-20T17:37:15;23.47;;;12.00;;
16977;SDS011;8605;52.548;4.918;2022-11-20T17:42:40;22.93;;;12.77;;
16977;SDS011;8605;52.548;4.918;2022-11-20T17:48:04;20.93;;;10.47;;
16977;SDS011;8605;52.548;4.918;2022-11-20T17:53:31;28.60;;;11.80;;
16977;SDS011;8605;52.548;4.918;2022-11-20T17:58:58;24.50;;;13.13;;
16977;SDS011;8605;52.548;4.918;2022-11-20T18:04:21;27.57;;;13.50;;
16977;SDS011;8605;52.548;4.918;2022-11-20T18:09:46;29.37;;;15.17;;
16977;SDS011;8605;52.548;4.918;2022-11-20T18:15:10;28.97;;;14.83;;
16977;SDS011;8605;52.548;4.918;2022-11-20T18:20:33;27.50;;;13.57;;
16977;SDS011;8605;52.548;4.918;2022-11-20T18:26:00;24.80;;;13.10;;
16977;SDS011;8605;52.548;4.918;2022-11-20T18:31:25;27.30;;;14.53;;
16977;SDS011;8605;52.548;4.918;2022-11-20T18:36:48;26.50;;;13.00;;
16977;SDS011;8605;52.548;4.918;2022-11-20T18:42:13;35.23;;;14.87;;
16977;SDS011;8605;52.548;4.918;2022-11-20T18:47:55;25.87;;;13.30;;
16977;SDS011;8605;52.548;4.918;2022-11-20T18:53:18;27.70;;;13.67;;
16977;SDS011;8605;52.548;4.918;2022-11-20T18:58:42;24.83;;;13.00;;
16977;SDS011;8605;52.548;4.918;2022-11-20T19:04:07;24.03;;;13.37;;
16977;SDS011;8605;52.548;4.918;2022-11-20T19:09:31;32.67;;;17.20;;
16977;SDS011;8605;52.548;4.918;2022-11-20T19:14:54;27.17;;;15.23;;
16977;SDS011;8605;52.548;4.918;2022-11-20T19:20:19;36.70;;;15.60;;
16977;SDS011;8605;52.548;4.918;2022-11-20T19:25:42;32.53;;;13.70;;
16977;SDS011;8605;52.548;4.918;2022-11-20T19:31:05;38.87;;;14.80;;
16977;SDS011;8605;52.548;4.918;2022-11-20T19:36:31;30.00;;;15.10;;
16977;SDS011;8605;52.548;4.918;2022-11-20T19:41:55;32.03;;;14.87;;
16977;SDS011;8605;52.548;4.918;2022-11-20T19:47:18;34.67;;;16.20;;
16977;SDS011;8605;52.548;4.918;2022-11-20T19:52:45;31.10;;;15.43;;
16977;SDS011;8605;52.548;4.918;2022-11-20T19:58:08;31.87;;;16.23;;
16977;SDS011;8605;52.548;4.918;2022-11-20T20:03:31;29.63;;;14.43;;
16977;SDS011;8605;52.548;4.918;2022-11-20T20:08:56;29.63;;;12.90;;
16977;SDS011;8605;52.548;4.918;2022-11-20T20:14:20;34.37;;;15.67;;
16977;SDS011;8605;52.548;4.918;2022-11-20T20:19:44;29.30;;;14.87;;
16977;SDS011;8605;52.548;4.918;2022-11-20T20:25:08;31.53;;;14.73;;
16977;SDS011;8605;52.548;4.918;2022-11-20T20:30:32;29.53;;;14.63;;
16977;SDS011;8605;52.548;4.918;2022-11-20T20:35:57;32.93;;;16.83;;
16977;SDS011;8605;52.548;4.918;2022-11-20T20:41:22;31.03;;;14.97;;
16977;SDS011;8605;52.548;4.918;2022-11-20T20:46:46;30.37;;;15.20;;
16977;SDS011;8605;52.548;4.918;2022-11-20T20:52:09;38.53;;;17.97;;
16977;SDS011;8605;52.548;4.918;2022-11-20T20:57:33;27.07;;;14.43;;
16977;SDS011;8605;52.548;4.918;2022-11-20T21:02:57;30.90;;;15.13;;
16977;SDS011;8605;52.548;4.918;2022-11-20T21:08:20;32.97;;;15.17;;
16977;SDS011;8605;52.548;4.918;2022-11-20T21:13:45;34.57;;;17.17;;
16977;SDS011;8605;52.548;4.918;2022-11-20T21:19:08;36.40;;;15.23;;
16977;SDS011;8605;52.548;4.918;2022-11-20T21:24:32;25.47;;;14.37;;
16977;SDS011;8605;52.548;4.918;2022-11-20T21:29:57;27.53;;;15.83;;
16977;SDS011;8605;52.548;4.918;2022-11-20T21:35:21;37.97;;;15.60;;
16977;SDS011;8605;52.548;4.918;2022-11-20T21:40:44;29.93;;;14.87;;
16977;SDS011;8605;52.548;4.918;2022-11-20T21:46:09;36.33;;;15.77;;
16977;SDS011;8605;52.548;4.918;2022-11-20T21:51:33;27.70;;;14.07;;
16977;SDS011;8605;52.548;4.918;2022-11-20T21:56:56;34.50;;;15.80;;
16977;SDS011;8605;52.548;4.918;2022-11-20T22:02:21;34.47;;;16.07;;
16977;SDS011;8605;52.548;4.918;2022-11-20T22:07:44;38.53;;;16.00;;
16977;SDS011;8605;52.548;4.918;2022-11-20T22:13:07;29.77;;;14.37;;
16977;SDS011;8605;52.548;4.918;2022-11-20T22:18:50;31.20;;;14.37;;
16977;SDS011;8605;52.548;4.918;2022-11-20T22:24:14;27.60;;;12.77;;
16977;SDS011;8605;52.548;4.918;2022-11-20T22:29:38;28.20;;;13.47;;
16977;SDS011;8605;52.548;4.918;2022-11-20T22:35:03;27.80;;;12.70;;
16977;SDS011;8605;52.548;4.918;2022-11-20T22:40:26;26.47;;;12.33;;
16977;SDS011;8605;52.548;4.918;2022-11-20T22:45:50;24.33;;;11.47;;
16977;SDS011;8605;52.548;4.918;2022-11-20T22:51:15;22.30;;;11.80;;
16977;SDS011;8605;52.548;4.918;2022-11-20T22:56:38;27.20;;;13.33;;
16977;SDS011;8605;52.548;4.918;2022-11-20T23:02:01;28.13;;;13.13;;
16977;SDS011;8605;52.548;4.918;2022-11-20T23:07:26;22.77;;;11.40;;
16977;SDS011;8605;52.548;4.918;2022-11-20T23:12:49;22.57;;;12.43;;
16977;SDS011;8605;52.548;4.918;2022-11-20T23:18:12;22.53;;;10.63;;
16977;SDS011;8605;52.548;4.918;2022-11-20T23:23:37;17.77;;;9.30;;
16977;SDS011;8605;52.548;4.918;2022-11-20T23:29:01;15.90;;;7.40;;
16977;SDS011;8605;52.548;4.918;2022-11-20T23:34:24;16.47;;;8.93;;
16977;SDS011;8605;52.548;4.918;2022-11-20T23:39:49;15.27;;;7.27;;
16977;SDS011;8605;52.548;4.918;2022-11-20T23:45:12;12.43;;;6.90;;
16977;SDS011;8605;52.548;4.918;2022-11-20T23:50:36;15.23;;;7.87;;
16977;SDS011;8605;52.548;4.918;2022-11-20T23:56:01;13.50;;;7.90;;
